sensor_id;sensor_type;location;lat;lon;timestamp;temperature;humidity
39099;DHT22;24844;52.380;7.018;2023-05-27T00:00:00;10.20;99.90
39099;DHT22;24844;52.380;7.018;2023-05-27T00:02:26;10.10;99.90
39099;DHT22;24844;52.380;7.018;2023-05-27T00:04:51;10.00;99.90
39099;DHT22;24844;52.380;7.018;2023-05-27T00:07:17;10.10;99.90
39099;DHT22;24844;52.380;7.018;2023-05-27T00:09:43;10.00;99.90
39099;DHT22;24844;52.380;7.018;2023-05-27T00:12:08;9.90;99.90
39099;DHT22;24844;52.380;7.018;2023-05-27T00:14:34;10.10;99.90
39099;DHT22;24844;52.380;7.018;2023-05-27T00:16:59;10.00;99.90
39099;DHT22;24844;52.380;7.018;2023-05-27T00:19:27;10.00;99.90
39099;DHT22;24844;52.380;7.018;2023-05-27T00:21:54;9.80;99.90
39099;DHT22;24844;52.380;7.018;2023-05-27T00:24:20;9.70;99.90
39099;DHT22;24844;52.380;7.018;2023-05-27T00:26:46;9.70;99.90
39099;DHT22;24844;52.380;7.018;2023-05-27T00:29:12;9.80;99.90
39099;DHT22;24844;52.380;7.018;2023-05-27T00:31:37;9.80;99.90
39099;DHT22;24844;52.380;7.018;2023-05-27T00:34:03;9.80;99.90
39099;DHT22;24844;52.380;7.018;2023-05-27T00:36:29;9.80;99.90
39099;DHT22;24844;52.380;7.018;2023-05-27T00:38:57;9.70;99.90
39099;DHT22;24844;52.380;7.018;2023-05-27T00:41:22;9.60;99.90
39099;DHT22;24844;52.380;7.018;2023-05-27T00:43:48;9.80;99.90
39099;DHT22;24844;52.380;7.018;2023-05-27T00:46:14;9.60;99.90
39099;DHT22;24844;52.380;7.018;2023-05-27T00:48:40;9.60;99.90
39099;DHT22;24844;52.380;7.018;2023-05-27T00:51:06;9.50;99.90
39099;DHT22;24844;52.380;7.018;2023-05-27T00:53:38;9.60;99.90
39099;DHT22;24844;52.380;7.018;2023-05-27T00:56:06;9.60;99.90
39099;DHT22;24844;52.380;7.018;2023-05-27T00:58:34;9.40;99.90
39099;DHT22;24844;52.380;7.018;2023-05-27T01:01:02;9.40;99.90
39099;DHT22;24844;52.380;7.018;2023-05-27T01:03:28;9.40;99.90
39099;DHT22;24844;52.380;7.018;2023-05-27T01:05:58;9.40;99.90
39099;DHT22;24844;52.380;7.018;2023-05-27T01:08:35;9.30;99.90
39099;DHT22;24844;52.380;7.018;2023-05-27T01:11:04;9.30;99.90
39099;DHT22;24844;52.380;7.018;2023-05-27T01:13:37;9.30;99.90
39099;DHT22;24844;52.380;7.018;2023-05-27T01:16:13;9.30;99.90
39099;DHT22;24844;52.380;7.018;2023-05-27T01:18:40;9.30;99.90
39099;DHT22;24844;52.380;7.018;2023-05-27T01:21:11;9.40;99.90
39099;DHT22;24844;52.380;7.018;2023-05-27T01:23:38;9.30;99.90
39099;DHT22;24844;52.380;7.018;2023-05-27T01:26:05;9.20;99.90
39099;DHT22;24844;52.380;7.018;2023-05-27T01:28:31;9.30;99.90
39099;DHT22;24844;52.380;7.018;2023-05-27T01:31:12;9.30;99.90
39099;DHT22;24844;52.380;7.018;2023-05-27T01:33:41;9.20;99.90
39099;DHT22;24844;52.380;7.018;2023-05-27T01:36:13;9.20;99.90
39099;DHT22;24844;52.380;7.018;2023-05-27T01:38:42;9.20;99.90
39099;DHT22;24844;52.380;7.018;2023-05-27T01:41:09;9.20;99.90
39099;DHT22;24844;52.380;7.018;2023-05-27T01:43:37;9.10;99.90
39099;DHT22;24844;52.380;7.018;2023-05-27T01:46:03;9.10;99.90
39099;DHT22;24844;52.380;7.018;2023-05-27T01:48:29;9.00;99.90
39099;DHT22;24844;52.380;7.018;2023-05-27T01:50:54;9.20;99.90
39099;DHT22;24844;52.380;7.018;2023-05-27T01:53:20;9.20;99.90
39099;DHT22;24844;52.380;7.018;2023-05-27T01:55:45;9.00;99.90
39099;DHT22;24844;52.380;7.018;2023-05-27T01:58:11;8.90;99.90
39099;DHT22;24844;52.380;7.018;2023-05-27T02:00:36;9.00;99.90
39099;DHT22;24844;52.380;7.018;2023-05-27T02:03:02;9.00;99.90
39099;DHT22;24844;52.380;7.018;2023-05-27T02:05:28;8.90;99.90
39099;DHT22;24844;52.380;7.018;2023-05-27T02:07:53;8.90;99.90
39099;DHT22;24844;52.380;7.018;2023-05-27T02:10:19;8.90;99.90
39099;DHT22;24844;52.380;7.018;2023-05-27T02:12:44;8.90;99.90
39099;DHT22;24844;52.380;7.018;2023-05-27T02:15:10;8.90;99.90
39099;DHT22;24844;52.380;7.018;2023-05-27T02:17:36;8.90;99.90
39099;DHT22;24844;52.380;7.018;2023-05-27T02:20:03;8.80;99.90
39099;DHT22;24844;52.380;7.018;2023-05-27T02:22:29;8.80;99.90
39099;DHT22;24844;52.380;7.018;2023-05-27T02:24:55;8.70;99.90
39099;DHT22;24844;52.380;7.018;2023-05-27T02:27:20;8.70;99.90
39099;DHT22;24844;52.380;7.018;2023-05-27T02:29:46;8.60;99.90
39099;DHT22;24844;52.380;7.018;2023-05-27T02:32:11;8.60;99.90
39099;DHT22;24844;52.380;7.018;2023-05-27T02:34:37;8.60;99.90
39099;DHT22;24844;52.380;7.018;2023-05-27T02:37:04;8.50;99.90
39099;DHT22;24844;52.380;7.018;2023-05-27T02:39:30;8.60;99.90
39099;DHT22;24844;52.380;7.018;2023-05-27T02:41:55;8.50;99.90
39099;DHT22;24844;52.380;7.018;2023-05-27T02:44:21;8.40;99.90
39099;DHT22;24844;52.380;7.018;2023-05-27T02:46:46;8.40;99.90
39099;DHT22;24844;52.380;7.018;2023-05-27T02:49:12;8.40;99.90
39099;DHT22;24844;52.380;7.018;2023-05-27T02:51:37;8.40;99.90
39099;DHT22;24844;52.380;7.018;2023-05-27T02:54:03;8.40;99.90
39099;DHT22;24844;52.380;7.018;2023-05-27T02:56:29;8.40;99.90
39099;DHT22;24844;52.380;7.018;2023-05-27T02:58:54;8.20;99.90
39099;DHT22;24844;52.380;7.018;2023-05-27T03:01:20;8.20;99.90
39099;DHT22;24844;52.380;7.018;2023-05-27T03:03:45;8.20;99.90
39099;DHT22;24844;52.380;7.018;2023-05-27T03:06:11;8.20;99.90
39099;DHT22;24844;52.380;7.018;2023-05-27T03:08:37;8.20;99.90
39099;DHT22;24844;52.380;7.018;2023-05-27T03:11:02;8.20;99.90
39099;DHT22;24844;52.380;7.018;2023-05-27T03:13:28;8.20;99.90
39099;DHT22;24844;52.380;7.018;2023-05-27T03:15:53;8.20;99.90
39099;DHT22;24844;52.380;7.018;2023-05-27T03:18:23;8.20;99.90
39099;DHT22;24844;52.380;7.018;2023-05-27T03:20:49;8.20;99.90
39099;DHT22;24844;52.380;7.018;2023-05-27T03:23:15;8.20;99.90
39099;DHT22;24844;52.380;7.018;2023-05-27T03:25:41;8.30;99.90
39099;DHT22;24844;52.380;7.018;2023-05-27T03:28:06;8.30;99.90
39099;DHT22;24844;52.380;7.018;2023-05-27T03:30:32;8.30;99.90
39099;DHT22;24844;52.380;7.018;2023-05-27T03:32:58;8.20;99.90
39099;DHT22;24844;52.380;7.018;2023-05-27T03:35:23;8.30;99.90
39099;DHT22;24844;52.380;7.018;2023-05-27T03:37:49;8.20;99.90
39099;DHT22;24844;52.380;7.018;2023-05-27T03:40:15;8.10;99.90
39099;DHT22;24844;52.380;7.018;2023-05-27T03:42:40;8.10;99.90
39099;DHT22;24844;52.380;7.018;2023-05-27T03:45:06;8.10;99.90
39099;DHT22;24844;52.380;7.018;2023-05-27T03:47:32;8.10;99.90
39099;DHT22;24844;52.380;7.018;2023-05-27T03:50:00;8.10;99.90
39099;DHT22;24844;52.380;7.018;2023-05-27T03:52:25;8.10;99.90
39099;DHT22;24844;52.380;7.018;2023-05-27T03:54:51;8.10;99.90
39099;DHT22;24844;52.380;7.018;2023-05-27T03:57:17;8.20;99.90
39099;DHT22;24844;52.380;7.018;2023-05-27T03:59:42;8.30;99.90
39099;DHT22;24844;52.380;7.018;2023-05-27T04:02:08;8.30;99.90
39099;DHT22;24844;52.380;7.018;2023-05-27T04:04:33;8.40;99.90
39099;DHT22;24844;52.380;7.018;2023-05-27T04:06:59;8.50;99.90
39099;DHT22;24844;52.380;7.018;2023-05-27T04:09:26;8.60;99.90
39099;DHT22;24844;52.380;7.018;2023-05-27T04:11:52;8.60;99.90
39099;DHT22;24844;52.380;7.018;2023-05-27T04:14:17;8.70;99.90
39099;DHT22;24844;52.380;7.018;2023-05-27T04:16:43;9.00;99.90
39099;DHT22;24844;52.380;7.018;2023-05-27T04:19:09;9.10;99.90
39099;DHT22;24844;52.380;7.018;2023-05-27T04:21:35;9.20;99.90
39099;DHT22;24844;52.380;7.018;2023-05-27T04:24:02;9.30;99.90
39099;DHT22;24844;52.380;7.018;2023-05-27T04:26:28;9.60;99.90
39099;DHT22;24844;52.380;7.018;2023-05-27T04:28:53;9.70;99.90
39099;DHT22;24844;52.380;7.018;2023-05-27T04:31:19;10.00;99.90
39099;DHT22;24844;52.380;7.018;2023-05-27T04:33:45;10.30;99.90
39099;DHT22;24844;52.380;7.018;2023-05-27T04:36:11;10.30;99.90
39099;DHT22;24844;52.380;7.018;2023-05-27T04:38:37;10.40;99.90
39099;DHT22;24844;52.380;7.018;2023-05-27T04:41:03;10.70;99.90
39099;DHT22;24844;52.380;7.018;2023-05-27T04:43:30;11.00;99.90
39099;DHT22;24844;52.380;7.018;2023-05-27T04:45:57;11.30;99.90
39099;DHT22;24844;52.380;7.018;2023-05-27T04:48:24;11.60;99.90
39099;DHT22;24844;52.380;7.018;2023-05-27T04:50:50;11.80;99.90
39099;DHT22;24844;52.380;7.018;2023-05-27T04:53:18;12.20;99.90
39099;DHT22;24844;52.380;7.018;2023-05-27T04:55:44;12.30;99.90
39099;DHT22;24844;52.380;7.018;2023-05-27T04:58:10;12.80;99.90
39099;DHT22;24844;52.380;7.018;2023-05-27T05:00:36;13.30;99.90
39099;DHT22;24844;52.380;7.018;2023-05-27T05:03:04;13.50;99.90
39099;DHT22;24844;52.380;7.018;2023-05-27T05:05:31;13.60;99.90
39099;DHT22;24844;52.380;7.018;2023-05-27T05:07:57;12.70;99.90
39099;DHT22;24844;52.380;7.018;2023-05-27T05:10:23;13.30;99.90
39099;DHT22;24844;52.380;7.018;2023-05-27T05:12:48;13.70;99.90
39099;DHT22;24844;52.380;7.018;2023-05-27T05:15:14;13.80;99.90
39099;DHT22;24844;52.380;7.018;2023-05-27T05:17:40;14.10;99.90
39099;DHT22;24844;52.380;7.018;2023-05-27T05:20:06;13.70;99.90
39099;DHT22;24844;52.380;7.018;2023-05-27T05:22:32;13.30;99.90
39099;DHT22;24844;52.380;7.018;2023-05-27T05:24:57;13.80;99.90
39099;DHT22;24844;52.380;7.018;2023-05-27T05:27:24;13.90;99.90
39099;DHT22;24844;52.380;7.018;2023-05-27T05:29:50;13.60;99.90
39099;DHT22;24844;52.380;7.018;2023-05-27T05:32:16;12.90;99.90
39099;DHT22;24844;52.380;7.018;2023-05-27T05:34:41;12.50;99.90
39099;DHT22;24844;52.380;7.018;2023-05-27T05:37:08;12.50;99.90
39099;DHT22;24844;52.380;7.018;2023-05-27T05:39:36;12.60;99.90
39099;DHT22;24844;52.380;7.018;2023-05-27T05:42:02;12.90;99.90
39099;DHT22;24844;52.380;7.018;2023-05-27T05:44:28;12.90;99.90
39099;DHT22;24844;52.380;7.018;2023-05-27T05:46:53;13.00;99.90
39099;DHT22;24844;52.380;7.018;2023-05-27T05:49:19;13.00;99.90
39099;DHT22;24844;52.380;7.018;2023-05-27T05:51:45;12.80;99.90
39099;DHT22;24844;52.380;7.018;2023-05-27T05:54:11;12.80;99.90
39099;DHT22;24844;52.380;7.018;2023-05-27T05:56:36;13.10;99.90
39099;DHT22;24844;52.380;7.018;2023-05-27T05:59:02;13.10;99.90
39099;DHT22;24844;52.380;7.018;2023-05-27T06:01:28;13.30;99.90
39099;DHT22;24844;52.380;7.018;2023-05-27T06:03:54;13.10;99.90
39099;DHT22;24844;52.380;7.018;2023-05-27T06:06:20;13.00;99.90
39099;DHT22;24844;52.380;7.018;2023-05-27T06:08:46;13.30;99.90
39099;DHT22;24844;52.380;7.018;2023-05-27T06:11:11;13.60;99.90
39099;DHT22;24844;52.380;7.018;2023-05-27T06:13:37;13.80;99.90
39099;DHT22;24844;52.380;7.018;2023-05-27T06:16:03;14.00;99.90
39099;DHT22;24844;52.380;7.018;2023-05-27T06:18:29;14.40;99.90
39099;DHT22;24844;52.380;7.018;2023-05-27T06:20:54;14.50;99.90
39099;DHT22;24844;52.380;7.018;2023-05-27T06:23:20;14.90;99.90
39099;DHT22;24844;52.380;7.018;2023-05-27T06:25:45;14.90;99.90
39099;DHT22;24844;52.380;7.018;2023-05-27T06:28:11;14.90;99.90
39099;DHT22;24844;52.380;7.018;2023-05-27T06:30:37;15.60;99.90
39099;DHT22;24844;52.380;7.018;2023-05-27T06:33:03;15.80;99.90
39099;DHT22;24844;52.380;7.018;2023-05-27T06:35:29;16.30;99.90
39099;DHT22;24844;52.380;7.018;2023-05-27T06:37:54;16.80;99.90
39099;DHT22;24844;52.380;7.018;2023-05-27T06:40:20;17.50;99.90
39099;DHT22;24844;52.380;7.018;2023-05-27T06:42:45;18.40;99.10
39099;DHT22;24844;52.380;7.018;2023-05-27T06:45:11;18.40;98.90
39099;DHT22;24844;52.380;7.018;2023-05-27T06:47:38;18.80;98.80
39099;DHT22;24844;52.380;7.018;2023-05-27T06:50:04;19.00;98.60
39099;DHT22;24844;52.380;7.018;2023-05-27T06:52:29;18.30;97.50
39099;DHT22;24844;52.380;7.018;2023-05-27T06:54:55;18.70;98.20
39099;DHT22;24844;52.380;7.018;2023-05-27T06:57:21;19.10;97.30
39099;DHT22;24844;52.380;7.018;2023-05-27T06:59:46;20.20;96.30
39099;DHT22;24844;52.380;7.018;2023-05-27T07:02:12;20.50;95.50
39099;DHT22;24844;52.380;7.018;2023-05-27T07:04:37;21.50;93.70
39099;DHT22;24844;52.380;7.018;2023-05-27T07:07:03;22.00;93.10
39099;DHT22;24844;52.380;7.018;2023-05-27T07:09:29;21.90;92.90
39099;DHT22;24844;52.380;7.018;2023-05-27T07:11:54;20.20;93.20
39099;DHT22;24844;52.380;7.018;2023-05-27T07:14:20;19.40;94.10
39099;DHT22;24844;52.380;7.018;2023-05-27T07:16:45;18.70;95.20
39099;DHT22;24844;52.380;7.018;2023-05-27T07:19:11;19.00;95.20
39099;DHT22;24844;52.380;7.018;2023-05-27T07:21:37;19.50;95.50
39099;DHT22;24844;52.380;7.018;2023-05-27T07:24:03;21.40;93.50
39099;DHT22;24844;52.380;7.018;2023-05-27T07:26:32;22.10;92.20
39099;DHT22;24844;52.380;7.018;2023-05-27T07:28:59;22.50;90.00
39099;DHT22;24844;52.380;7.018;2023-05-27T07:31:25;21.50;91.50
39099;DHT22;24844;52.380;7.018;2023-05-27T07:33:51;22.60;90.40
39099;DHT22;24844;52.380;7.018;2023-05-27T07:36:16;23.90;87.30
39099;DHT22;24844;52.380;7.018;2023-05-27T07:38:42;22.90;87.40
39099;DHT22;24844;52.380;7.018;2023-05-27T07:41:08;22.60;86.60
39099;DHT22;24844;52.380;7.018;2023-05-27T07:43:33;21.00;89.50
39099;DHT22;24844;52.380;7.018;2023-05-27T07:45:59;20.80;90.80
39099;DHT22;24844;52.380;7.018;2023-05-27T07:48:24;22.90;86.90
39099;DHT22;24844;52.380;7.018;2023-05-27T07:50:50;23.90;83.80
39099;DHT22;24844;52.380;7.018;2023-05-27T07:53:16;23.30;84.10
39099;DHT22;24844;52.380;7.018;2023-05-27T07:55:41;22.90;84.80
39099;DHT22;24844;52.380;7.018;2023-05-27T07:58:07;22.50;85.60
39099;DHT22;24844;52.380;7.018;2023-05-27T08:00:32;21.30;87.00
39099;DHT22;24844;52.380;7.018;2023-05-27T08:02:58;21.90;86.30
39099;DHT22;24844;52.380;7.018;2023-05-27T08:05:23;22.40;86.10
39099;DHT22;24844;52.380;7.018;2023-05-27T08:07:49;22.70;84.10
39099;DHT22;24844;52.380;7.018;2023-05-27T08:10:15;24.10;82.80
39099;DHT22;24844;52.380;7.018;2023-05-27T08:12:41;24.20;79.50
39099;DHT22;24844;52.380;7.018;2023-05-27T08:15:07;23.70;81.80
39099;DHT22;24844;52.380;7.018;2023-05-27T08:17:33;22.90;81.20
39099;DHT22;24844;52.380;7.018;2023-05-27T08:19:58;22.50;82.40
39099;DHT22;24844;52.380;7.018;2023-05-27T08:22:24;24.30;78.80
39099;DHT22;24844;52.380;7.018;2023-05-27T08:24:50;24.80;74.90
39099;DHT22;24844;52.380;7.018;2023-05-27T08:27:17;24.30;75.30
39099;DHT22;24844;52.380;7.018;2023-05-27T08:29:43;25.00;76.10
39099;DHT22;24844;52.380;7.018;2023-05-27T08:32:09;26.70;69.70
39099;DHT22;24844;52.380;7.018;2023-05-27T08:34:34;27.20;68.40
39099;DHT22;24844;52.380;7.018;2023-05-27T08:37:00;28.00;65.90
39099;DHT22;24844;52.380;7.018;2023-05-27T08:39:26;28.20;63.00
39099;DHT22;24844;52.380;7.018;2023-05-27T08:41:53;27.60;62.60
39099;DHT22;24844;52.380;7.018;2023-05-27T08:44:21;26.70;62.60
39099;DHT22;24844;52.380;7.018;2023-05-27T08:46:48;27.50;61.20
39099;DHT22;24844;52.380;7.018;2023-05-27T08:49:14;27.50;60.80
39099;DHT22;24844;52.380;7.018;2023-05-27T08:51:40;26.60;61.30
39099;DHT22;24844;52.380;7.018;2023-05-27T08:54:08;24.20;64.20
39099;DHT22;24844;52.380;7.018;2023-05-27T08:56:35;24.20;64.30
39099;DHT22;24844;52.380;7.018;2023-05-27T08:59:01;25.60;64.20
39099;DHT22;24844;52.380;7.018;2023-05-27T09:01:27;26.20;63.00
39099;DHT22;24844;52.380;7.018;2023-05-27T09:03:54;24.90;62.00
39099;DHT22;24844;52.380;7.018;2023-05-27T09:06:20;24.90;62.50
39099;DHT22;24844;52.380;7.018;2023-05-27T09:08:46;26.10;61.40
39099;DHT22;24844;52.380;7.018;2023-05-27T09:11:25;26.30;61.70
39099;DHT22;24844;52.380;7.018;2023-05-27T09:13:53;27.90;60.20
39099;DHT22;24844;52.380;7.018;2023-05-27T09:16:20;27.90;57.60
39099;DHT22;24844;52.380;7.018;2023-05-27T09:18:46;25.40;60.00
39099;DHT22;24844;52.380;7.018;2023-05-27T09:21:12;24.80;61.70
39099;DHT22;24844;52.380;7.018;2023-05-27T09:23:38;24.30;63.40
39099;DHT22;24844;52.380;7.018;2023-05-27T09:26:11;24.00;62.60
39099;DHT22;24844;52.380;7.018;2023-05-27T09:28:37;26.20;61.30
39099;DHT22;24844;52.380;7.018;2023-05-27T09:31:05;26.70;59.80
39099;DHT22;24844;52.380;7.018;2023-05-27T09:33:33;27.00;59.10
39099;DHT22;24844;52.380;7.018;2023-05-27T09:36:00;28.80;57.50
39099;DHT22;24844;52.380;7.018;2023-05-27T09:38:34;29.90;56.40
39099;DHT22;24844;52.380;7.018;2023-05-27T09:41:00;30.70;54.00
39099;DHT22;24844;52.380;7.018;2023-05-27T09:43:27;30.50;52.20
39099;DHT22;24844;52.380;7.018;2023-05-27T09:46:03;30.60;51.20
39099;DHT22;24844;52.380;7.018;2023-05-27T09:48:32;30.30;51.80
39099;DHT22;24844;52.380;7.018;2023-05-27T09:50:58;30.70;51.50
39099;DHT22;24844;52.380;7.018;2023-05-27T09:53:26;28.50;51.50
39099;DHT22;24844;52.380;7.018;2023-05-27T09:55:55;27.90;51.50
39099;DHT22;24844;52.380;7.018;2023-05-27T09:58:21;28.10;53.10
39099;DHT22;24844;52.380;7.018;2023-05-27T10:00:48;30.30;50.80
39099;DHT22;24844;52.380;7.018;2023-05-27T10:03:14;30.10;49.70
39099;DHT22;24844;52.380;7.018;2023-05-27T10:05:45;29.50;50.10
39099;DHT22;24844;52.380;7.018;2023-05-27T10:08:11;30.60;49.20
39099;DHT22;24844;52.380;7.018;2023-05-27T10:10:38;30.30;49.70
39099;DHT22;24844;52.380;7.018;2023-05-27T10:13:04;30.50;49.10
39099;DHT22;24844;52.380;7.018;2023-05-27T10:15:31;28.60;50.20
39099;DHT22;24844;52.380;7.018;2023-05-27T10:20:26;29.50;48.60
39099;DHT22;24844;52.380;7.018;2023-05-27T10:22:51;29.00;49.50
39099;DHT22;24844;52.380;7.018;2023-05-27T10:25:17;27.20;49.60
39099;DHT22;24844;52.380;7.018;2023-05-27T10:27:46;27.30;51.10
39099;DHT22;24844;52.380;7.018;2023-05-27T10:30:13;27.70;50.50
39099;DHT22;24844;52.380;7.018;2023-05-27T10:32:44;27.10;51.50
39099;DHT22;24844;52.380;7.018;2023-05-27T10:35:10;28.20;50.50
39099;DHT22;24844;52.380;7.018;2023-05-27T10:37:36;27.40;51.30
39099;DHT22;24844;52.380;7.018;2023-05-27T10:40:02;29.00;49.50
39099;DHT22;24844;52.380;7.018;2023-05-27T10:42:31;29.80;49.30
39099;DHT22;24844;52.380;7.018;2023-05-27T10:45:08;28.40;49.10
39099;DHT22;24844;52.380;7.018;2023-05-27T10:47:36;28.30;50.40
39099;DHT22;24844;52.380;7.018;2023-05-27T10:50:12;29.70;49.30
39099;DHT22;24844;52.380;7.018;2023-05-27T10:52:39;31.10;48.20
39099;DHT22;24844;52.380;7.018;2023-05-27T10:55:05;31.80;47.80
39099;DHT22;24844;52.380;7.018;2023-05-27T10:57:34;31.10;47.20
39099;DHT22;24844;52.380;7.018;2023-05-27T11:00:04;28.40;48.10
39099;DHT22;24844;52.380;7.018;2023-05-27T11:02:35;27.30;50.40
39099;DHT22;24844;52.380;7.018;2023-05-27T11:05:01;27.50;50.10
39099;DHT22;24844;52.380;7.018;2023-05-27T11:07:27;26.90;51.10
39099;DHT22;24844;52.380;7.018;2023-05-27T11:09:53;26.70;51.90
39099;DHT22;24844;52.380;7.018;2023-05-27T11:12:21;26.60;52.50
39099;DHT22;24844;52.380;7.018;2023-05-27T11:14:53;26.50;52.20
39099;DHT22;24844;52.380;7.018;2023-05-27T11:17:20;24.70;54.00
39099;DHT22;24844;52.380;7.018;2023-05-27T11:19:45;23.60;56.40
39099;DHT22;24844;52.380;7.018;2023-05-27T11:22:12;23.10;56.70
39099;DHT22;24844;52.380;7.018;2023-05-27T11:24:39;23.80;55.70
39099;DHT22;24844;52.380;7.018;2023-05-27T11:27:12;24.20;56.10
39099;DHT22;24844;52.380;7.018;2023-05-27T11:29:39;24.00;56.30
39099;DHT22;24844;52.380;7.018;2023-05-27T11:32:05;23.10;58.20
39099;DHT22;24844;52.380;7.018;2023-05-27T11:34:33;23.80;58.10
39099;DHT22;24844;52.380;7.018;2023-05-27T11:37:02;22.60;59.30
39099;DHT22;24844;52.380;7.018;2023-05-27T11:39:31;22.50;59.80
39099;DHT22;24844;52.380;7.018;2023-05-27T11:41:57;21.50;61.70
39099;DHT22;24844;52.380;7.018;2023-05-27T11:44:24;21.30;63.30
39099;DHT22;24844;52.380;7.018;2023-05-27T11:46:50;21.50;60.50
39099;DHT22;24844;52.380;7.018;2023-05-27T11:49:17;21.90;61.10
39099;DHT22;24844;52.380;7.018;2023-05-27T11:51:47;22.60;59.20
39099;DHT22;24844;52.380;7.018;2023-05-27T11:54:24;22.70;59.30
39099;DHT22;24844;52.380;7.018;2023-05-27T11:56:51;22.80;59.40
39099;DHT22;24844;52.380;7.018;2023-05-27T11:59:17;22.90;58.20
39099;DHT22;24844;52.380;7.018;2023-05-27T12:01:44;22.00;59.00
39099;DHT22;24844;52.380;7.018;2023-05-27T12:04:10;21.30;60.60
39099;DHT22;24844;52.380;7.018;2023-05-27T12:06:37;21.50;60.10
39099;DHT22;24844;52.380;7.018;2023-05-27T12:09:05;21.70;59.10
39099;DHT22;24844;52.380;7.018;2023-05-27T12:11:32;22.50;58.50
39099;DHT22;24844;52.380;7.018;2023-05-27T12:13:58;22.40;59.10
39099;DHT22;24844;52.380;7.018;2023-05-27T12:16:24;22.20;59.20
39099;DHT22;24844;52.380;7.018;2023-05-27T12:18:49;22.00;60.70
39099;DHT22;24844;52.380;7.018;2023-05-27T12:21:15;22.10;60.40
39099;DHT22;24844;52.380;7.018;2023-05-27T12:23:41;22.10;58.70
39099;DHT22;24844;52.380;7.018;2023-05-27T12:26:07;21.20;59.60
39099;DHT22;24844;52.380;7.018;2023-05-27T12:28:33;21.10;59.00
39099;DHT22;24844;52.380;7.018;2023-05-27T12:30:58;21.20;59.80
39099;DHT22;24844;52.380;7.018;2023-05-27T12:33:24;21.60;59.10
39099;DHT22;24844;52.380;7.018;2023-05-27T12:35:50;21.30;58.40
39099;DHT22;24844;52.380;7.018;2023-05-27T12:38:15;21.10;61.60
39099;DHT22;24844;52.380;7.018;2023-05-27T12:40:41;20.90;61.60
39099;DHT22;24844;52.380;7.018;2023-05-27T12:43:06;20.80;60.80
39099;DHT22;24844;52.380;7.018;2023-05-27T12:45:32;20.50;60.40
39099;DHT22;24844;52.380;7.018;2023-05-27T12:47:58;21.00;60.40
39099;DHT22;24844;52.380;7.018;2023-05-27T12:50:24;21.30;61.00
39099;DHT22;24844;52.380;7.018;2023-05-27T12:52:50;21.70;60.60
39099;DHT22;24844;52.380;7.018;2023-05-27T12:55:18;21.90;59.40
39099;DHT22;24844;52.380;7.018;2023-05-27T12:57:48;22.20;58.90
39099;DHT22;24844;52.380;7.018;2023-05-27T13:00:15;21.60;60.40
39099;DHT22;24844;52.380;7.018;2023-05-27T13:02:41;22.30;58.50
39099;DHT22;24844;52.380;7.018;2023-05-27T13:05:08;22.00;58.80
39099;DHT22;24844;52.380;7.018;2023-05-27T13:07:35;22.00;58.80
39099;DHT22;24844;52.380;7.018;2023-05-27T13:10:05;21.60;59.90
39099;DHT22;24844;52.380;7.018;2023-05-27T13:12:32;21.30;62.30
39099;DHT22;24844;52.380;7.018;2023-05-27T13:14:59;21.50;60.70
39099;DHT22;24844;52.380;7.018;2023-05-27T13:17:25;22.00;59.40
39099;DHT22;24844;52.380;7.018;2023-05-27T13:19:51;21.40;61.20
39099;DHT22;24844;52.380;7.018;2023-05-27T13:22:16;21.30;61.90
39099;DHT22;24844;52.380;7.018;2023-05-27T13:24:42;21.30;62.50
39099;DHT22;24844;52.380;7.018;2023-05-27T13:27:08;21.60;61.90
39099;DHT22;24844;52.380;7.018;2023-05-27T13:29:34;21.70;61.60
39099;DHT22;24844;52.380;7.018;2023-05-27T13:32:00;21.90;60.70
39099;DHT22;24844;52.380;7.018;2023-05-27T13:34:27;21.60;60.20
39099;DHT22;24844;52.380;7.018;2023-05-27T13:36:55;22.10;59.80
39099;DHT22;24844;52.380;7.018;2023-05-27T13:39:20;21.60;61.40
39099;DHT22;24844;52.380;7.018;2023-05-27T13:41:46;22.10;60.80
39099;DHT22;24844;52.380;7.018;2023-05-27T13:44:11;22.40;60.10
39099;DHT22;24844;52.380;7.018;2023-05-27T13:46:38;22.20;60.60
39099;DHT22;24844;52.380;7.018;2023-05-27T13:49:03;22.10;59.30
39099;DHT22;24844;52.380;7.018;2023-05-27T13:51:32;22.10;59.20
39099;DHT22;24844;52.380;7.018;2023-05-27T13:53:57;22.40;59.80
39099;DHT22;24844;52.380;7.018;2023-05-27T13:56:23;21.90;60.60
39099;DHT22;24844;52.380;7.018;2023-05-27T13:58:52;22.20;60.20
39099;DHT22;24844;52.380;7.018;2023-05-27T14:01:20;22.70;59.20
39099;DHT22;24844;52.380;7.018;2023-05-27T14:03:46;21.70;61.50
39099;DHT22;24844;52.380;7.018;2023-05-27T14:06:12;21.40;62.30
39099;DHT22;24844;52.380;7.018;2023-05-27T14:08:37;21.20;62.80
39099;DHT22;24844;52.380;7.018;2023-05-27T14:11:03;21.30;61.90
39099;DHT22;24844;52.380;7.018;2023-05-27T14:13:29;21.20;62.60
39099;DHT22;24844;52.380;7.018;2023-05-27T14:15:55;21.20;61.90
39099;DHT22;24844;52.380;7.018;2023-05-27T14:18:20;21.30;61.70
39099;DHT22;24844;52.380;7.018;2023-05-27T14:20:47;21.40;61.70
39099;DHT22;24844;52.380;7.018;2023-05-27T14:23:12;21.50;61.90
39099;DHT22;24844;52.380;7.018;2023-05-27T14:25:39;21.80;59.80
39099;DHT22;24844;52.380;7.018;2023-05-27T14:28:05;21.90;59.50
39099;DHT22;24844;52.380;7.018;2023-05-27T14:30:32;21.40;58.50
39099;DHT22;24844;52.380;7.018;2023-05-27T14:33:03;21.90;60.40
39099;DHT22;24844;52.380;7.018;2023-05-27T14:35:28;22.60;59.60
39099;DHT22;24844;52.380;7.018;2023-05-27T14:37:54;22.60;58.40
39099;DHT22;24844;52.380;7.018;2023-05-27T14:40:19;22.40;58.70
39099;DHT22;24844;52.380;7.018;2023-05-27T14:42:45;22.50;59.00
39099;DHT22;24844;52.380;7.018;2023-05-27T14:45:11;21.80;59.40
39099;DHT22;24844;52.380;7.018;2023-05-27T14:47:37;21.70;60.20
39099;DHT22;24844;52.380;7.018;2023-05-27T14:50:02;21.70;59.90
39099;DHT22;24844;52.380;7.018;2023-05-27T14:52:28;21.90;59.30
39099;DHT22;24844;52.380;7.018;2023-05-27T14:54:53;22.50;59.80
39099;DHT22;24844;52.380;7.018;2023-05-27T14:57:19;22.80;58.60
39099;DHT22;24844;52.380;7.018;2023-05-27T14:59:45;22.20;58.10
39099;DHT22;24844;52.380;7.018;2023-05-27T15:02:10;22.30;59.10
39099;DHT22;24844;52.380;7.018;2023-05-27T15:04:36;22.50;58.40
39099;DHT22;24844;52.380;7.018;2023-05-27T15:07:02;22.60;58.10
39099;DHT22;24844;52.380;7.018;2023-05-27T15:09:27;22.00;56.10
39099;DHT22;24844;52.380;7.018;2023-05-27T15:11:54;21.60;58.10
39099;DHT22;24844;52.380;7.018;2023-05-27T15:14:19;21.60;58.30
39099;DHT22;24844;52.380;7.018;2023-05-27T15:16:45;21.60;59.60
39099;DHT22;24844;52.380;7.018;2023-05-27T15:19:11;21.70;60.90
39099;DHT22;24844;52.380;7.018;2023-05-27T15:21:36;22.10;59.80
39099;DHT22;24844;52.380;7.018;2023-05-27T15:24:02;22.60;58.70
39099;DHT22;24844;52.380;7.018;2023-05-27T15:26:28;21.90;59.20
39099;DHT22;24844;52.380;7.018;2023-05-27T15:28:54;21.90;59.20
39099;DHT22;24844;52.380;7.018;2023-05-27T15:31:19;22.30;58.50